Weather Forecast for Al Bateen Airport 
Friday, April 28, 2017 (10:10 UTC)
Al Bateen Executive Airport
ICAO Code: OMAD
IATA Code: AZI
  • METAR OMAD 281000Z 24005KT 190V280 CAVOK 40/13 Q1008 NOSIG=
  • TAF OMAD 280500Z 2806/2912 17007KT 8000 NSC BECMG 2807/2809 31012KT BECMG 2817/2819 04005KT BECMG 2903/2905 17012KT BECMG 2910/2912 33011KT=
AL BATEEN (OMAD) 5 DAY OUTLOOK:
Sunday, 30/Apr/2017
HIGH:
40°C
LOW:
25°C
MIN. VISIBILITY:
7000 meters
WIND (DIRECTION/SPEED):
SE at 3 - 5 knots (6 - 9 km/h) becoming NW at 10 - 15 knots (19 - 28 km/h)
WEATHER:
Partly Cloudy
RAINFALL:
Nil
Monday, 01/May/2017
HIGH:
40°C
LOW:
25°C
MIN. VISIBILITY:
7000 meters
WIND (DIRECTION/SPEED):
SE at 3 - 5 knots (6 - 9 km/h) becoming NNW at 10 - 15 knots (19 - 28 km/h)
WEATHER:
Partly Cloudy.
RAINFALL:
Nil
Tuesday, 02/May/2017
HIGH:
40°C
LOW:
26°C
MIN. VISIBILITY:
7000 meters
WIND (DIRECTION/SPEED):
Light and variable wind becoming NW at 10 - 15 knots (19 - 28 km/h)
WEATHER:
Partly Cloudy.
RAINFALL:
Nil
Wednesday, 03/May/2017
HIGH:
42°C
LOW:
27°C
MIN. VISIBILITY:
8000 meters
WIND (DIRECTION/SPEED):
SE at 5 - 7 knots (9 - 13 km/h) becoming NW at 10 - 15 knots (19 - 28 km/h)
WEATHER:
Sunny.
RAINFALL:
Nil
Thursday, 04/May/2017
HIGH:
41°C
LOW:
25°C
MIN. VISIBILITY:
8000 meters
WIND (DIRECTION/SPEED):
S at 7 - 10 knots (13 - 19 km/h) becoming NW at 10 - 15 knots (19 - 28 km/h)
WEATHER:
Sunny.
RAINFALL:
Nil